Terminal Aerodrome Forecast
Issued by NWS Brownsville, TX

Home | Current Version | Previous Version | Text Only | Print | Product List | Glossary On
Versions: 1 2 3 4 5 6 7 8 9 10 11 12 13 14 15 16 17 18 19 20 21 22 23 24 25 26 27
210
FTUS44 KBRO 031745
TAFHRL
TAF
KHRL 031745Z 0318/0418 17019G26KT P6SM BKN040
     FM040000 15007KT P6SM OVC020
     FM040600 03008KT 5SM -SHRA OVC012
     FM041200 01008KT 4SM -SHRA OVC012
      TEMPO 0412/0416 3SM TSRA OVC012CB=

USA.gov is the U.S. government's official web portal to all federal, state and local government web resources and services.